sensor_id;sensor_type;location;lat;lon;timestamp;P1;P2;P0
76679;PMS5003;65597;51.520;-0.224;2023-02-26T00:00:59;5;4;
76679;PMS5003;65597;51.520;-0.224;2023-02-26T00:03:25;4;3;
76679;PMS5003;65597;51.520;-0.224;2023-02-26T00:05:50;5;5;
76679;PMS5003;65597;51.520;-0.224;2023-02-26T00:08:16;4;4;
76679;PMS5003;65597;51.520;-0.224;2023-02-26T00:10:42;6;4;
76679;PMS5003;65597;51.520;-0.224;2023-02-26T00:13:07;9;5;
76679;PMS5003;65597;51.520;-0.224;2023-02-26T00:15:33;5;4;
76679;PMS5003;65597;51.520;-0.224;2023-02-26T00:17:59;4;4;
76679;PMS5003;65597;51.520;-0.224;2023-02-26T00:20:24;5;5;
76679;PMS5003;65597;51.520;-0.224;2023-02-26T00:22:50;5;5;
76679;PMS5003;65597;51.520;-0.224;2023-02-26T00:25:14;5;4;
76679;PMS5003;65597;51.520;-0.224;2023-02-26T00:27:40;4;3;
76679;PMS5003;65597;51.520;-0.224;2023-02-26T00:30:07;6;5;
76679;PMS5003;65597;51.520;-0.224;2023-02-26T00:32:32;4;4;
76679;PMS5003;65597;51.520;-0.224;2023-02-26T00:34:57;5;3;
76679;PMS5003;65597;51.520;-0.224;2023-02-26T00:37:26;6;3;
76679;PMS5003;65597;51.520;-0.224;2023-02-26T00:39:50;5;3;
76679;PMS5003;65597;51.520;-0.224;2023-02-26T00:42:13;7;3;
76679;PMS5003;65597;51.520;-0.224;2023-02-26T00:44:39;5;3;
76679;PMS5003;65597;51.520;-0.224;2023-02-26T00:47:07;4;4;
76679;PMS5003;65597;51.520;-0.224;2023-02-26T00:49:37;9;5;
76679;PMS5003;65597;51.520;-0.224;2023-02-26T00:51:55;6;5;
76679;PMS5003;65597;51.520;-0.224;2023-02-26T00:54:21;7;4;
76679;PMS5003;65597;51.520;-0.224;2023-02-26T00:56:45;4;4;
76679;PMS5003;65597;51.520;-0.224;2023-02-26T00:59:11;5;4;
76679;PMS5003;65597;51.520;-0.224;2023-02-26T01:01:36;4;3;
76679;PMS5003;65597;51.520;-0.224;2023-02-26T01:04:02;6;5;
76679;PMS5003;65597;51.520;-0.224;2023-02-26T01:06:29;7;5;
76679;PMS5003;65597;51.520;-0.224;2023-02-26T01:08:54;5;3;
76679;PMS5003;65597;51.520;-0.224;2023-02-26T01:11:19;4;4;
76679;PMS5003;65597;51.520;-0.224;2023-02-26T01:13:44;5;5;
76679;PMS5003;65597;51.520;-0.224;2023-02-26T01:16:10;5;4;
76679;PMS5003;65597;51.520;-0.224;2023-02-26T01:18:36;4;2;
76679;PMS5003;65597;51.520;-0.224;2023-02-26T01:21:02;5;4;
76679;PMS5003;65597;51.520;-0.224;2023-02-26T01:23:28;6;3;
76679;PMS5003;65597;51.520;-0.224;2023-02-26T01:25:52;5;4;
76679;PMS5003;65597;51.520;-0.224;2023-02-26T01:28:17;4;3;
76679;PMS5003;65597;51.520;-0.224;2023-02-26T01:30:43;4;4;
76679;PMS5003;65597;51.520;-0.224;2023-02-26T01:33:09;4;4;
76679;PMS5003;65597;51.520;-0.224;2023-02-26T01:35:39;9;4;
76679;PMS5003;65597;51.520;-0.224;2023-02-26T01:38:00;4;4;
76679;PMS5003;65597;51.520;-0.224;2023-02-26T01:40:31;7;5;
76679;PMS5003;65597;51.520;-0.224;2023-02-26T01:42:50;4;3;
76679;PMS5003;65597;51.520;-0.224;2023-02-26T01:45:15;4;4;
76679;PMS5003;65597;51.520;-0.224;2023-02-26T01:47:44;10;5;
76679;PMS5003;65597;51.520;-0.224;2023-02-26T01:50:08;5;4;
76679;PMS5003;65597;51.520;-0.224;2023-02-26T01:54:56;6;6;
76679;PMS5003;65597;51.520;-0.224;2023-02-26T01:57:22;5;4;
76679;PMS5003;65597;51.520;-0.224;2023-02-26T01:59:48;4;4;
76679;PMS5003;65597;51.520;-0.224;2023-02-26T02:02:15;6;4;
76679;PMS5003;65597;51.520;-0.224;2023-02-26T02:04:38;7;5;
76679;PMS5003;65597;51.520;-0.224;2023-02-26T02:07:05;5;5;
76679;PMS5003;65597;51.520;-0.224;2023-02-26T02:09:30;7;6;
76679;PMS5003;65597;51.520;-0.224;2023-02-26T02:12:01;4;4;
76679;PMS5003;65597;51.520;-0.224;2023-02-26T02:14:22;7;5;
76679;PMS5003;65597;51.520;-0.224;2023-02-26T02:16:47;6;5;
76679;PMS5003;65597;51.520;-0.224;2023-02-26T02:19:17;8;5;
76679;PMS5003;65597;51.520;-0.224;2023-02-26T02:21:43;5;3;
76679;PMS5003;65597;51.520;-0.224;2023-02-26T02:24:07;4;4;
76679;PMS5003;65597;51.520;-0.224;2023-02-26T02:26:34;4;4;
76679;PMS5003;65597;51.520;-0.224;2023-02-26T02:29:00;4;3;
76679;PMS5003;65597;51.520;-0.224;2023-02-26T02:31:20;5;3;
76679;PMS5003;65597;51.520;-0.224;2023-02-26T02:33:46;3;2;
76679;PMS5003;65597;51.520;-0.224;2023-02-26T02:36:12;6;4;
76679;PMS5003;65597;51.520;-0.224;2023-02-26T02:38:37;9;4;
76679;PMS5003;65597;51.520;-0.224;2023-02-26T02:41:04;2;2;
76679;PMS5003;65597;51.520;-0.224;2023-02-26T02:43:29;2;2;
76679;PMS5003;65597;51.520;-0.224;2023-02-26T02:45:53;4;3;
76679;PMS5003;65597;51.520;-0.224;2023-02-26T02:48:19;3;3;
76679;PMS5003;65597;51.520;-0.224;2023-02-26T02:50:44;4;3;
76679;PMS5003;65597;51.520;-0.224;2023-02-26T02:53:10;4;3;
76679;PMS5003;65597;51.520;-0.224;2023-02-26T02:55:35;4;3;
76679;PMS5003;65597;51.520;-0.224;2023-02-26T02:58:01;4;2;
76679;PMS5003;65597;51.520;-0.224;2023-02-26T03:00:26;4;3;
76679;PMS5003;65597;51.520;-0.224;2023-02-26T03:02:53;3;2;
76679;PMS5003;65597;51.520;-0.224;2023-02-26T03:05:17;3;3;
76679;PMS5003;65597;51.520;-0.224;2023-02-26T03:07:44;2;2;
76679;PMS5003;65597;51.520;-0.224;2023-02-26T03:10:08;3;2;
76679;PMS5003;65597;51.520;-0.224;2023-02-26T03:12:34;5;4;
76679;PMS5003;65597;51.520;-0.224;2023-02-26T03:14:59;4;4;
76679;PMS5003;65597;51.520;-0.224;2023-02-26T03:17:26;5;3;
76679;PMS5003;65597;51.520;-0.224;2023-02-26T03:19:55;5;3;
76679;PMS5003;65597;51.520;-0.224;2023-02-26T03:22:16;6;4;
76679;PMS5003;65597;51.520;-0.224;2023-02-26T03:24:45;4;3;
76679;PMS5003;65597;51.520;-0.224;2023-02-26T03:27:08;3;3;
76679;PMS5003;65597;51.520;-0.224;2023-02-26T03:29:33;4;3;
76679;PMS5003;65597;51.520;-0.224;2023-02-26T03:31:59;4;3;
76679;PMS5003;65597;51.520;-0.224;2023-02-26T03:34:24;6;4;
76679;PMS5003;65597;51.520;-0.224;2023-02-26T03:36:52;6;4;
76679;PMS5003;65597;51.520;-0.224;2023-02-26T03:39:15;2;2;
76679;PMS5003;65597;51.520;-0.224;2023-02-26T03:41:41;5;4;
76679;PMS5003;65597;51.520;-0.224;2023-02-26T03:44:06;6;3;
76679;PMS5003;65597;51.520;-0.224;2023-02-26T03:46:32;2;2;
76679;PMS5003;65597;51.520;-0.224;2023-02-26T03:48:58;5;3;
76679;PMS5003;65597;51.520;-0.224;2023-02-26T03:51:22;5;3;
76679;PMS5003;65597;51.520;-0.224;2023-02-26T03:53:48;6;4;
76679;PMS5003;65597;51.520;-0.224;2023-02-26T03:56:15;4;3;
76679;PMS5003;65597;51.520;-0.224;2023-02-26T03:58:39;3;3;
76679;PMS5003;65597;51.520;-0.224;2023-02-26T04:01:06;3;3;
76679;PMS5003;65597;51.520;-0.224;2023-02-26T04:03:31;6;4;
76679;PMS5003;65597;51.520;-0.224;2023-02-26T04:05:55;4;3;
76679;PMS5003;65597;51.520;-0.224;2023-02-26T04:08:21;3;3;
76679;PMS5003;65597;51.520;-0.224;2023-02-26T04:10:47;5;3;
76679;PMS5003;65597;51.520;-0.224;2023-02-26T04:13:13;4;3;
76679;PMS5003;65597;51.520;-0.224;2023-02-26T04:15:37;4;3;
76679;PMS5003;65597;51.520;-0.224;2023-02-26T04:18:03;3;3;
76679;PMS5003;65597;51.520;-0.224;2023-02-26T04:20:28;5;3;
76679;PMS5003;65597;51.520;-0.224;2023-02-26T04:22:54;4;4;
76679;PMS5003;65597;51.520;-0.224;2023-02-26T04:25:21;6;3;
76679;PMS5003;65597;51.520;-0.224;2023-02-26T04:27:44;7;4;
76679;PMS5003;65597;51.520;-0.224;2023-02-26T04:30:10;5;3;
76679;PMS5003;65597;51.520;-0.224;2023-02-26T04:32:36;6;4;
76679;PMS5003;65597;51.520;-0.224;2023-02-26T04:35:01;3;3;
76679;PMS5003;65597;51.520;-0.224;2023-02-26T04:37:28;3;3;
76679;PMS5003;65597;51.520;-0.224;2023-02-26T04:39:52;4;3;
76679;PMS5003;65597;51.520;-0.224;2023-02-26T04:42:18;4;4;
76679;PMS5003;65597;51.520;-0.224;2023-02-26T04:44:43;3;3;
76679;PMS5003;65597;51.520;-0.224;2023-02-26T04:47:09;3;2;
76679;PMS5003;65597;51.520;-0.224;2023-02-26T04:49:36;4;3;
76679;PMS5003;65597;51.520;-0.224;2023-02-26T04:52:00;5;4;
76679;PMS5003;65597;51.520;-0.224;2023-02-26T04:54:26;9;3;
76679;PMS5003;65597;51.520;-0.224;2023-02-26T04:56:51;6;4;
76679;PMS5003;65597;51.520;-0.224;2023-02-26T04:59:17;3;3;
76679;PMS5003;65597;51.520;-0.224;2023-02-26T05:01:43;5;4;
76679;PMS5003;65597;51.520;-0.224;2023-02-26T05:04:08;4;4;
76679;PMS5003;65597;51.520;-0.224;2023-02-26T05:06:33;4;4;
76679;PMS5003;65597;51.520;-0.224;2023-02-26T05:08:59;7;4;
76679;PMS5003;65597;51.520;-0.224;2023-02-26T05:11:24;3;2;
76679;PMS5003;65597;51.520;-0.224;2023-02-26T05:13:50;7;6;
76679;PMS5003;65597;51.520;-0.224;2023-02-26T05:16:16;4;4;
76679;PMS5003;65597;51.520;-0.224;2023-02-26T05:18:41;4;4;
76679;PMS5003;65597;51.520;-0.224;2023-02-26T05:21:07;4;4;
76679;PMS5003;65597;51.520;-0.224;2023-02-26T05:23:32;4;4;
76679;PMS5003;65597;51.520;-0.224;2023-02-26T05:25:58;3;2;
76679;PMS5003;65597;51.520;-0.224;2023-02-26T05:28:24;3;2;
76679;PMS5003;65597;51.520;-0.224;2023-02-26T05:30:49;4;3;
76679;PMS5003;65597;51.520;-0.224;2023-02-26T05:33:14;3;3;
76679;PMS5003;65597;51.520;-0.224;2023-02-26T05:35:45;3;3;
76679;PMS5003;65597;51.520;-0.224;2023-02-26T05:38:06;3;3;
76679;PMS5003;65597;51.520;-0.224;2023-02-26T05:40:31;5;4;
76679;PMS5003;65597;51.520;-0.224;2023-02-26T05:42:57;7;4;
76679;PMS5003;65597;51.520;-0.224;2023-02-26T05:45:22;3;2;
76679;PMS5003;65597;51.520;-0.224;2023-02-26T05:47:48;3;3;
76679;PMS5003;65597;51.520;-0.224;2023-02-26T05:50:13;5;4;
76679;PMS5003;65597;51.520;-0.224;2023-02-26T05:52:39;4;3;
76679;PMS5003;65597;51.520;-0.224;2023-02-26T05:55:05;4;3;
76679;PMS5003;65597;51.520;-0.224;2023-02-26T05:57:30;4;4;
76679;PMS5003;65597;51.520;-0.224;2023-02-26T05:59:55;5;3;
76679;PMS5003;65597;51.520;-0.224;2023-02-26T06:02:22;4;4;
76679;PMS5003;65597;51.520;-0.224;2023-02-26T06:04:46;4;3;
76679;PMS5003;65597;51.520;-0.224;2023-02-26T06:07:12;4;4;
76679;PMS5003;65597;51.520;-0.224;2023-02-26T06:09:38;3;2;
76679;PMS5003;65597;51.520;-0.224;2023-02-26T06:12:03;4;4;
76679;PMS5003;65597;51.520;-0.224;2023-02-26T06:14:30;6;4;
76679;PMS5003;65597;51.520;-0.224;2023-02-26T06:16:54;4;3;
76679;PMS5003;65597;51.520;-0.224;2023-02-26T06:19:20;3;3;
76679;PMS5003;65597;51.520;-0.224;2023-02-26T06:21:45;4;3;
76679;PMS5003;65597;51.520;-0.224;2023-02-26T06:24:11;2;2;
76679;PMS5003;65597;51.520;-0.224;2023-02-26T06:26:36;8;3;
76679;PMS5003;65597;51.520;-0.224;2023-02-26T06:29:02;3;3;
76679;PMS5003;65597;51.520;-0.224;2023-02-26T06:31:27;5;3;
76679;PMS5003;65597;51.520;-0.224;2023-02-26T06:33:53;4;3;
76679;PMS5003;65597;51.520;-0.224;2023-02-26T06:36:19;3;3;
76679;PMS5003;65597;51.520;-0.224;2023-02-26T06:38:46;6;4;
76679;PMS5003;65597;51.520;-0.224;2023-02-26T06:41:10;4;4;
76679;PMS5003;65597;51.520;-0.224;2023-02-26T06:43:35;8;6;
76679;PMS5003;65597;51.520;-0.224;2023-02-26T06:46:01;4;4;
76679;PMS5003;65597;51.520;-0.224;2023-02-26T06:48:26;5;4;
76679;PMS5003;65597;51.520;-0.224;2023-02-26T06:50:54;3;3;
76679;PMS5003;65597;51.520;-0.224;2023-02-26T06:53:17;4;4;
76679;PMS5003;65597;51.520;-0.224;2023-02-26T06:55:43;3;3;
76679;PMS5003;65597;51.520;-0.224;2023-02-26T06:58:08;5;3;
76679;PMS5003;65597;51.520;-0.224;2023-02-26T07:00:34;4;2;
76679;PMS5003;65597;51.520;-0.224;2023-02-26T07:03:01;2;2;
76679;PMS5003;65597;51.520;-0.224;2023-02-26T07:05:25;3;2;
76679;PMS5003;65597;51.520;-0.224;2023-02-26T07:07:50;4;3;
76679;PMS5003;65597;51.520;-0.224;2023-02-26T07:10:16;4;4;
76679;PMS5003;65597;51.520;-0.224;2023-02-26T07:12:42;4;2;
76679;PMS5003;65597;51.520;-0.224;2023-02-26T07:15:08;4;2;
76679;PMS5003;65597;51.520;-0.224;2023-02-26T07:17:32;4;3;
76679;PMS5003;65597;51.520;-0.224;2023-02-26T07:19:58;4;2;
76679;PMS5003;65597;51.520;-0.224;2023-02-26T07:22:23;2;2;
76679;PMS5003;65597;51.520;-0.224;2023-02-26T07:24:49;3;2;
76679;PMS5003;65597;51.520;-0.224;2023-02-26T07:27:14;3;2;
76679;PMS5003;65597;51.520;-0.224;2023-02-26T07:29:39;8;4;
76679;PMS5003;65597;51.520;-0.224;2023-02-26T07:32:05;6;3;
76679;PMS5003;65597;51.520;-0.224;2023-02-26T07:34:31;1;1;
76679;PMS5003;65597;51.520;-0.224;2023-02-26T07:36:56;2;2;
76679;PMS5003;65597;51.520;-0.224;2023-02-26T07:39:23;6;3;
76679;PMS5003;65597;51.520;-0.224;2023-02-26T07:41:47;3;3;
76679;PMS5003;65597;51.520;-0.224;2023-02-26T07:44:13;3;2;
76679;PMS5003;65597;51.520;-0.224;2023-02-26T07:46:38;3;2;
76679;PMS5003;65597;51.520;-0.224;2023-02-26T07:49:04;2;1;
76679;PMS5003;65597;51.520;-0.224;2023-02-26T07:51:30;5;4;
76679;PMS5003;65597;51.520;-0.224;2023-02-26T07:53:55;2;2;
76679;PMS5003;65597;51.520;-0.224;2023-02-26T07:56:20;3;2;
76679;PMS5003;65597;51.520;-0.224;2023-02-26T07:58:46;2;2;
76679;PMS5003;65597;51.520;-0.224;2023-02-26T08:01:13;1;1;
76679;PMS5003;65597;51.520;-0.224;2023-02-26T08:03:38;3;1;
76679;PMS5003;65597;51.520;-0.224;2023-02-26T08:06:02;3;3;
76679;PMS5003;65597;51.520;-0.224;2023-02-26T08:08:28;4;2;
76679;PMS5003;65597;51.520;-0.224;2023-02-26T08:10:53;2;2;
76679;PMS5003;65597;51.520;-0.224;2023-02-26T08:13:19;3;3;
76679;PMS5003;65597;51.520;-0.224;2023-02-26T08:15:44;4;2;
76679;PMS5003;65597;51.520;-0.224;2023-02-26T08:18:10;2;1;
76679;PMS5003;65597;51.520;-0.224;2023-02-26T08:20:35;3;2;
76679;PMS5003;65597;51.520;-0.224;2023-02-26T08:23:01;1;1;
76679;PMS5003;65597;51.520;-0.224;2023-02-26T08:25:26;4;2;
76679;PMS5003;65597;51.520;-0.224;2023-02-26T08:27:52;3;2;
76679;PMS5003;65597;51.520;-0.224;2023-02-26T08:30:17;2;1;
76679;PMS5003;65597;51.520;-0.224;2023-02-26T08:32:43;2;2;
76679;PMS5003;65597;51.520;-0.224;2023-02-26T08:35:09;1;1;
76679;PMS5003;65597;51.520;-0.224;2023-02-26T08:37:34;1;1;
76679;PMS5003;65597;51.520;-0.224;2023-02-26T08:40:01;4;3;
76679;PMS5003;65597;51.520;-0.224;2023-02-26T08:42:25;5;4;
76679;PMS5003;65597;51.520;-0.224;2023-02-26T08:44:50;4;3;
76679;PMS5003;65597;51.520;-0.224;2023-02-26T08:47:16;4;2;
76679;PMS5003;65597;51.520;-0.224;2023-02-26T08:49:41;5;4;
76679;PMS5003;65597;51.520;-0.224;2023-02-26T08:52:08;3;1;
76679;PMS5003;65597;51.520;-0.224;2023-02-26T08:54:32;2;2;
76679;PMS5003;65597;51.520;-0.224;2023-02-26T08:56:58;4;3;
76679;PMS5003;65597;51.520;-0.224;2023-02-26T08:59:23;3;3;
76679;PMS5003;65597;51.520;-0.224;2023-02-26T09:01:49;7;4;
76679;PMS5003;65597;51.520;-0.224;2023-02-26T09:04:14;3;2;
76679;PMS5003;65597;51.520;-0.224;2023-02-26T09:06:40;8;7;
76679;PMS5003;65597;51.520;-0.224;2023-02-26T09:09:06;4;3;
76679;PMS5003;65597;51.520;-0.224;2023-02-26T09:11:32;3;2;
76679;PMS5003;65597;51.520;-0.224;2023-02-26T09:13:56;3;3;
76679;PMS5003;65597;51.520;-0.224;2023-02-26T09:16:22;3;2;
76679;PMS5003;65597;51.520;-0.224;2023-02-26T09:18:48;3;3;
76679;PMS5003;65597;51.520;-0.224;2023-02-26T09:21:13;3;2;
76679;PMS5003;65597;51.520;-0.224;2023-02-26T09:23:39;2;2;
76679;PMS5003;65597;51.520;-0.224;2023-02-26T09:26:04;4;3;
76679;PMS5003;65597;51.520;-0.224;2023-02-26T09:28:31;4;4;
76679;PMS5003;65597;51.520;-0.224;2023-02-26T09:30:55;5;2;
76679;PMS5003;65597;51.520;-0.224;2023-02-26T09:33:21;3;2;
76679;PMS5003;65597;51.520;-0.224;2023-02-26T09:35:46;3;3;
76679;PMS5003;65597;51.520;-0.224;2023-02-26T09:38:12;3;3;
76679;PMS5003;65597;51.520;-0.224;2023-02-26T09:40:41;3;3;
76679;PMS5003;65597;51.520;-0.224;2023-02-26T09:43:12;4;2;
76679;PMS5003;65597;51.520;-0.224;2023-02-26T09:45:29;4;2;
76679;PMS5003;65597;51.520;-0.224;2023-02-26T09:47:54;4;2;
76679;PMS5003;65597;51.520;-0.224;2023-02-26T09:50:20;2;2;
76679;PMS5003;65597;51.520;-0.224;2023-02-26T09:52:46;2;2;
76679;PMS5003;65597;51.520;-0.224;2023-02-26T09:55:11;1;1;
76679;PMS5003;65597;51.520;-0.224;2023-02-26T09:57:36;8;5;
76679;PMS5003;65597;51.520;-0.224;2023-02-26T10:00:02;3;2;
76679;PMS5003;65597;51.520;-0.224;2023-02-26T10:02:31;3;3;
76679;PMS5003;65597;51.520;-0.224;2023-02-26T10:04:55;3;3;
76679;PMS5003;65597;51.520;-0.224;2023-02-26T10:07:22;3;2;
76679;PMS5003;65597;51.520;-0.224;2023-02-26T10:09:47;2;2;
76679;PMS5003;65597;51.520;-0.224;2023-02-26T10:12:09;0;0;
76679;PMS5003;65597;51.520;-0.224;2023-02-26T10:14:36;3;2;
76679;PMS5003;65597;51.520;-0.224;2023-02-26T10:17:06;1;1;
76679;PMS5003;65597;51.520;-0.224;2023-02-26T10:19:26;1;1;
76679;PMS5003;65597;51.520;-0.224;2023-02-26T10:21:52;1;1;
76679;PMS5003;65597;51.520;-0.224;2023-02-26T10:24:18;2;1;
76679;PMS5003;65597;51.520;-0.224;2023-02-26T10:26:43;2;2;
76679;PMS5003;65597;51.520;-0.224;2023-02-26T10:29:13;1;1;
76679;PMS5003;65597;51.520;-0.224;2023-02-26T10:31:34;1;1;
76679;PMS5003;65597;51.520;-0.224;2023-02-26T10:34:02;1;0;
76679;PMS5003;65597;51.520;-0.224;2023-02-26T10:36:25;1;1;
76679;PMS5003;65597;51.520;-0.224;2023-02-26T10:38:51;1;1;
76679;PMS5003;65597;51.520;-0.224;2023-02-26T10:41:18;5;1;
76679;PMS5003;65597;51.520;-0.224;2023-02-26T10:43:41;1;0;
76679;PMS5003;65597;51.520;-0.224;2023-02-26T10:46:09;1;1;
76679;PMS5003;65597;51.520;-0.224;2023-02-26T10:48:40;10;4;
76679;PMS5003;65597;51.520;-0.224;2023-02-26T10:50:58;1;1;
76679;PMS5003;65597;51.520;-0.224;2023-02-26T10:53:22;1;1;
76679;PMS5003;65597;51.520;-0.224;2023-02-26T10:55:49;2;0;
76679;PMS5003;65597;51.520;-0.224;2023-02-26T10:58:16;2;1;
76679;PMS5003;65597;51.520;-0.224;2023-02-26T11:00:40;1;0;
76679;PMS5003;65597;51.520;-0.224;2023-02-26T11:03:06;2;2;
76679;PMS5003;65597;51.520;-0.224;2023-02-26T11:05:32;2;1;
76679;PMS5003;65597;51.520;-0.224;2023-02-26T11:07:57;1;1;
76679;PMS5003;65597;51.520;-0.224;2023-02-26T11:10:22;2;1;
76679;PMS5003;65597;51.520;-0.224;2023-02-26T11:12:46;2;1;
76679;PMS5003;65597;51.520;-0.224;2023-02-26T11:15:12;2;2;
76679;PMS5003;65597;51.520;-0.224;2023-02-26T11:17:38;2;1;
76679;PMS5003;65597;51.520;-0.224;2023-02-26T11:20:03;1;0;
76679;PMS5003;65597;51.520;-0.224;2023-02-26T11:22:30;0;0;
76679;PMS5003;65597;51.520;-0.224;2023-02-26T11:24:53;1;1;
76679;PMS5003;65597;51.520;-0.224;2023-02-26T11:27:20;1;1;
76679;PMS5003;65597;51.520;-0.224;2023-02-26T11:29:46;2;1;
76679;PMS5003;65597;51.520;-0.224;2023-02-26T11:32:13;0;0;
76679;PMS5003;65597;51.520;-0.224;2023-02-26T11:34:35;1;0;
76679;PMS5003;65597;51.520;-0.224;2023-02-26T11:37:01;2;1;
76679;PMS5003;65597;51.520;-0.224;2023-02-26T11:39:27;0;0;
76679;PMS5003;65597;51.520;-0.224;2023-02-26T11:41:54;2;1;
76679;PMS5003;65597;51.520;-0.224;2023-02-26T11:44:18;1;1;
76679;PMS5003;65597;51.520;-0.224;2023-02-26T11:46:43;1;0;
76679;PMS5003;65597;51.520;-0.224;2023-02-26T11:49:08;2;1;
76679;PMS5003;65597;51.520;-0.224;2023-02-26T11:51:34;1;1;
76679;PMS5003;65597;51.520;-0.224;2023-02-26T11:53:59;1;0;
76679;PMS5003;65597;51.520;-0.224;2023-02-26T11:56:26;3;1;
76679;PMS5003;65597;51.520;-0.224;2023-02-26T11:58:51;1;1;
76679;PMS5003;65597;51.520;-0.224;2023-02-26T12:01:16;1;1;
76679;PMS5003;65597;51.520;-0.224;2023-02-26T12:03:42;0;0;
76679;PMS5003;65597;51.520;-0.224;2023-02-26T12:06:10;3;0;
76679;PMS5003;65597;51.520;-0.224;2023-02-26T12:08:33;0;0;
76679;PMS5003;65597;51.520;-0.224;2023-02-26T12:11:02;2;2;
76679;PMS5003;65597;51.520;-0.224;2023-02-26T12:13:25;1;1;
76679;PMS5003;65597;51.520;-0.224;2023-02-26T12:15:50;2;2;
76679;PMS5003;65597;51.520;-0.224;2023-02-26T12:18:19;1;1;
76679;PMS5003;65597;51.520;-0.224;2023-02-26T12:20:42;1;1;
76679;PMS5003;65597;51.520;-0.224;2023-02-26T12:23:11;2;1;
76679;PMS5003;65597;51.520;-0.224;2023-02-26T12:25:35;2;1;
76679;PMS5003;65597;51.520;-0.224;2023-02-26T12:30:37;0;0;
76679;PMS5003;65597;51.520;-0.224;2023-02-26T12:32:50;1;1;
76679;PMS5003;65597;51.520;-0.224;2023-02-26T12:35:19;1;1;
76679;PMS5003;65597;51.520;-0.224;2023-02-26T12:37:42;4;2;
76679;PMS5003;65597;51.520;-0.224;2023-02-26T12:40:07;1;1;
76679;PMS5003;65597;51.520;-0.224;2023-02-26T12:42:35;2;2;
76679;PMS5003;65597;51.520;-0.224;2023-02-26T12:44:59;3;2;
76679;PMS5003;65597;51.520;-0.224;2023-02-26T12:47:24;2;2;
76679;PMS5003;65597;51.520;-0.224;2023-02-26T12:49:49;1;1;
76679;PMS5003;65597;51.520;-0.224;2023-02-26T12:52:16;2;2;
76679;PMS5003;65597;51.520;-0.224;2023-02-26T12:54:41;1;1;
76679;PMS5003;65597;51.520;-0.224;2023-02-26T12:57:07;1;1;
76679;PMS5003;65597;51.520;-0.224;2023-02-26T12:59:32;4;2;
76679;PMS5003;65597;51.520;-0.224;2023-02-26T13:01:57;1;1;
76679;PMS5003;65597;51.520;-0.224;2023-02-26T13:06:51;1;1;
76679;PMS5003;65597;51.520;-0.224;2023-02-26T13:09:13;1;1;
76679;PMS5003;65597;51.520;-0.224;2023-02-26T13:11:41;1;1;
76679;PMS5003;65597;51.520;-0.224;2023-02-26T13:14:16;2;2;
76679;PMS5003;65597;51.520;-0.224;2023-02-26T13:16:31;2;2;
76679;PMS5003;65597;51.520;-0.224;2023-02-26T13:18:55;1;1;
76679;PMS5003;65597;51.520;-0.224;2023-02-26T13:21:18;1;1;
76679;PMS5003;65597;51.520;-0.224;2023-02-26T13:23:47;3;2;
76679;PMS5003;65597;51.520;-0.224;2023-02-26T13:26:09;1;1;
76679;PMS5003;65597;51.520;-0.224;2023-02-26T13:28:38;1;1;
76679;PMS5003;65597;51.520;-0.224;2023-02-26T13:31:01;1;1;
76679;PMS5003;65597;51.520;-0.224;2023-02-26T13:33:26;1;1;
76679;PMS5003;65597;51.520;-0.224;2023-02-26T13:35:51;0;0;
76679;PMS5003;65597;51.520;-0.224;2023-02-26T13:38:18;4;3;
76679;PMS5003;65597;51.520;-0.224;2023-02-26T13:40:44;1;1;
76679;PMS5003;65597;51.520;-0.224;2023-02-26T13:43:14;2;1;
76679;PMS5003;65597;51.520;-0.224;2023-02-26T13:45:41;2;1;
76679;PMS5003;65597;51.520;-0.224;2023-02-26T13:48:02;1;1;
76679;PMS5003;65597;51.520;-0.224;2023-02-26T13:50:26;1;1;
76679;PMS5003;65597;51.520;-0.224;2023-02-26T13:52:49;2;2;
76679;PMS5003;65597;51.520;-0.224;2023-02-26T13:57:42;2;1;
76679;PMS5003;65597;51.520;-0.224;2023-02-26T14:00:07;2;2;
76679;PMS5003;65597;51.520;-0.224;2023-02-26T14:02:43;1;1;
76679;PMS5003;65597;51.520;-0.224;2023-02-26T14:04:57;2;2;
76679;PMS5003;65597;51.520;-0.224;2023-02-26T14:09:54;3;3;
76679;PMS5003;65597;51.520;-0.224;2023-02-26T14:14:39;2;1;
76679;PMS5003;65597;51.520;-0.224;2023-02-26T14:19:31;3;2;
76679;PMS5003;65597;51.520;-0.224;2023-02-26T14:21:55;1;1;
76679;PMS5003;65597;51.520;-0.224;2023-02-26T14:24:21;2;1;
76679;PMS5003;65597;51.520;-0.224;2023-02-26T14:26:47;2;2;
76679;PMS5003;65597;51.520;-0.224;2023-02-26T14:29:13;1;1;
76679;PMS5003;65597;51.520;-0.224;2023-02-26T14:31:50;1;1;
76679;PMS5003;65597;51.520;-0.224;2023-02-26T14:34:07;1;1;
76679;PMS5003;65597;51.520;-0.224;2023-02-26T14:36:31;2;1;
76679;PMS5003;65597;51.520;-0.224;2023-02-26T14:38:53;2;1;
76679;PMS5003;65597;51.520;-0.224;2023-02-26T14:41:23;1;1;
76679;PMS5003;65597;51.520;-0.224;2023-02-26T14:43:49;2;1;
76679;PMS5003;65597;51.520;-0.224;2023-02-26T14:46:09;1;1;
76679;PMS5003;65597;51.520;-0.224;2023-02-26T14:48:35;2;2;
76679;PMS5003;65597;51.520;-0.224;2023-02-26T14:51:04;2;1;
76679;PMS5003;65597;51.520;-0.224;2023-02-26T14:53:33;1;1;
76679;PMS5003;65597;51.520;-0.224;2023-02-26T14:55:55;1;1;
76679;PMS5003;65597;51.520;-0.224;2023-02-26T14:58:25;1;1;
76679;PMS5003;65597;51.520;-0.224;2023-02-26T15:00:45;1;1;
76679;PMS5003;65597;51.520;-0.224;2023-02-26T15:05:39;2;1;
76679;PMS5003;65597;51.520;-0.224;2023-02-26T15:08:05;3;2;
76679;PMS5003;65597;51.520;-0.224;2023-02-26T15:10:28;1;1;
76679;PMS5003;65597;51.520;-0.224;2023-02-26T15:12:55;2;1;
76679;PMS5003;65597;51.520;-0.224;2023-02-26T15:15:19;2;1;
76679;PMS5003;65597;51.520;-0.224;2023-02-26T15:17:47;1;1;
76679;PMS5003;65597;51.520;-0.224;2023-02-26T15:20:09;0;0;
76679;PMS5003;65597;51.520;-0.224;2023-02-26T15:22:39;1;1;
76679;PMS5003;65597;51.520;-0.224;2023-02-26T15:24:57;3;2;
76679;PMS5003;65597;51.520;-0.224;2023-02-26T15:27:23;2;2;
76679;PMS5003;65597;51.520;-0.224;2023-02-26T15:29:48;1;1;
76679;PMS5003;65597;51.520;-0.224;2023-02-26T15:32:14;2;2;
76679;PMS5003;65597;51.520;-0.224;2023-02-26T15:34:42;2;1;
76679;PMS5003;65597;51.520;-0.224;2023-02-26T15:37:04;1;1;
76679;PMS5003;65597;51.520;-0.224;2023-02-26T15:39:30;3;3;
76679;PMS5003;65597;51.520;-0.224;2023-02-26T15:41:55;3;2;
76679;PMS5003;65597;51.520;-0.224;2023-02-26T15:44:23;3;3;
76679;PMS5003;65597;51.520;-0.224;2023-02-26T15:46:47;2;2;
76679;PMS5003;65597;51.520;-0.224;2023-02-26T15:49:17;2;2;
76679;PMS5003;65597;51.520;-0.224;2023-02-26T15:51:38;2;2;
76679;PMS5003;65597;51.520;-0.224;2023-02-26T15:54:03;5;3;
76679;PMS5003;65597;51.520;-0.224;2023-02-26T15:56:29;1;1;
76679;PMS5003;65597;51.520;-0.224;2023-02-26T15:58:55;2;2;
76679;PMS5003;65597;51.520;-0.224;2023-02-26T16:01:20;2;2;
76679;PMS5003;65597;51.520;-0.224;2023-02-26T16:03:45;1;1;
76679;PMS5003;65597;51.520;-0.224;2023-02-26T16:06:11;1;1;
76679;PMS5003;65597;51.520;-0.224;2023-02-26T16:08:36;2;2;
76679;PMS5003;65597;51.520;-0.224;2023-02-26T16:11:02;0;0;
76679;PMS5003;65597;51.520;-0.224;2023-02-26T16:13:28;4;3;
76679;PMS5003;65597;51.520;-0.224;2023-02-26T16:15:53;8;7;
76679;PMS5003;65597;51.520;-0.224;2023-02-26T16:18:21;3;3;
76679;PMS5003;65597;51.520;-0.224;2023-02-26T16:20:44;4;3;
76679;PMS5003;65597;51.520;-0.224;2023-02-26T16:23:10;2;1;
76679;PMS5003;65597;51.520;-0.224;2023-02-26T16:25:36;3;3;
76679;PMS5003;65597;51.520;-0.224;2023-02-26T16:28:01;3;3;
76679;PMS5003;65597;51.520;-0.224;2023-02-26T16:30:29;3;3;
76679;PMS5003;65597;51.520;-0.224;2023-02-26T16:32:52;2;1;
76679;PMS5003;65597;51.520;-0.224;2023-02-26T16:35:18;3;2;
76679;PMS5003;65597;51.520;-0.224;2023-02-26T16:37:43;2;2;
76679;PMS5003;65597;51.520;-0.224;2023-02-26T16:40:11;3;3;